createdAt,value
2023-03-31T00:02:15.124Z,96759.53
2023-03-31T00:04:46.585Z,96755.41
2023-03-31T00:07:14.842Z,96754.50
2023-03-31T00:09:46.025Z,96747.47
2023-03-31T00:12:16.788Z,96743.16
2023-03-31T00:14:44.055Z,96740.75
2023-03-31T00:17:11.526Z,96746.31
2023-03-31T00:19:40.181Z,96735.47
2023-03-31T00:22:07.060Z,96740.22
2023-03-31T00:24:34.514Z,96739.81
2023-03-31T00:27:03.188Z,96721.09
2023-03-31T00:29:30.081Z,96721.47
2023-03-31T00:31:56.832Z,96724.50
2023-03-31T00:34:23.383Z,96716.91
2023-03-31T00:36:49.876Z,96711.88
2023-03-31T00:39:18.791Z,96704.47
2023-03-31T00:41:45.733Z,96694.19
2023-03-31T00:44:24.523Z,96688.28
2023-03-31T00:46:52.532Z,96682.38
2023-03-31T00:49:40.407Z,96684.59
2023-03-31T00:52:09.196Z,96688.50
2023-03-31T00:54:37.026Z,96683.50
2023-03-31T00:57:06.856Z,96685.53
2023-03-31T00:59:38.984Z,96677.09
2023-03-31T01:02:05.750Z,96674.75
2023-03-31T01:04:38.248Z,96668.69
2023-03-31T01:07:16.993Z,96654.78
2023-03-31T01:09:48.868Z,96659.41
2023-03-31T01:12:17.812Z,96658.81
2023-03-31T01:14:44.496Z,96650.34
2023-03-31T01:17:11.180Z,96640.06
2023-03-31T01:20:01.938Z,96634.09
2023-03-31T01:22:59.563Z,96636.03
2023-03-31T01:25:26.267Z,96634.25
2023-03-31T01:28:23.534Z,96627.50
2023-03-31T01:31:27.560Z,96620.69
2023-03-31T01:34:20.601Z,96619.94
2023-03-31T01:37:23.173Z,96611.16
2023-03-31T01:40:10.858Z,96604.78
2023-03-31T01:42:43.135Z,96608.91
2023-03-31T01:45:34.473Z,96610.41
2023-03-31T01:48:08.126Z,96601.81
2023-03-31T01:50:53.459Z,96589.63
2023-03-31T01:53:34.148Z,96586.25
2023-03-31T01:56:23.790Z,96590.31
2023-03-31T01:59:02.454Z,96591.63
2023-03-31T02:01:41.277Z,96587.81
2023-03-31T02:04:14.674Z,96584.97
2023-03-31T02:06:46.792Z,96582.94
2023-03-31T02:09:19.391Z,96572.13
2023-03-31T02:11:48.229Z,96576.19
2023-03-31T02:14:21.855Z,96572.53
2023-03-31T02:16:52.479Z,96571.44
2023-03-31T02:19:23.426Z,96562.69
2023-03-31T02:21:51.026Z,96563.22
2023-03-31T02:24:20.270Z,96563.06
2023-03-31T02:27:20.962Z,96552.44
2023-03-31T02:29:48.428Z,96539.22
2023-03-31T02:32:20.552Z,96543.44
2023-03-31T02:34:47.188Z,96544.47
2023-03-31T02:37:14.381Z,96535.97
2023-03-31T02:39:44.751Z,96532.88
2023-03-31T02:42:11.764Z,96534.25
2023-03-31T02:44:39.504Z,96524.25
2023-03-31T02:47:09.142Z,96525.44
2023-03-31T02:49:39.113Z,96530.75
2023-03-31T02:52:15.308Z,96518.34
2023-03-31T02:55:02.990Z,96507.47
2023-03-31T02:57:44.892Z,96503.22
2023-03-31T03:00:36.330Z,96495.97
2023-03-31T03:03:18.084Z,96492.06
2023-03-31T03:05:59.110Z,96494.50
2023-03-31T03:08:40.349Z,96485.53
2023-03-31T03:11:26.047Z,96488.81
2023-03-31T03:14:22.167Z,96490.88
2023-03-31T03:16:55.085Z,96484.16
2023-03-31T03:19:23.695Z,96484.31
2023-03-31T03:21:50.704Z,96470.97
2023-03-31T03:24:18.054Z,96464.81
2023-03-31T03:26:45.814Z,96459.66
2023-03-31T03:29:15.914Z,96468.47
2023-03-31T03:31:42.794Z,96455.38
2023-03-31T03:34:09.747Z,96464.16
2023-03-31T03:36:40.288Z,96472.00
2023-03-31T03:39:07.811Z,96479.94
2023-03-31T03:41:34.730Z,96472.84
2023-03-31T03:44:01.286Z,96467.59
2023-03-31T03:46:27.879Z,96467.50
2023-03-31T03:48:54.626Z,96458.06
2023-03-31T03:51:21.420Z,96451.06
2023-03-31T03:53:47.935Z,96453.94
2023-03-31T03:56:14.450Z,96463.00
2023-03-31T03:58:41.141Z,96446.25
2023-03-31T04:01:07.677Z,96447.84
2023-03-31T04:03:34.182Z,96445.94
2023-03-31T04:06:00.772Z,96443.25
2023-03-31T04:08:27.289Z,96451.00
2023-03-31T04:10:53.851Z,96456.25
2023-03-31T04:13:20.645Z,96450.19
2023-03-31T04:15:47.507Z,96442.00
2023-03-31T04:18:23.378Z,96445.00
2023-03-31T04:20:54.852Z,96443.31
2023-03-31T04:23:23.482Z,96435.03
2023-03-31T04:25:52.780Z,96441.88
2023-03-31T04:28:20.042Z,96439.31
2023-03-31T04:30:46.568Z,96431.75
2023-03-31T04:33:15.441Z,96431.16
2023-03-31T04:35:52.633Z,96433.88
2023-03-31T04:38:22.268Z,96421.81
2023-03-31T04:40:51.234Z,96416.38
2023-03-31T04:43:19.627Z,96419.63
2023-03-31T04:45:46.295Z,96415.94
2023-03-31T04:48:13.123Z,96423.59
2023-03-31T04:50:40.028Z,96415.59
2023-03-31T04:53:06.880Z,96418.00
2023-03-31T04:55:33.650Z,96412.69
2023-03-31T04:58:00.242Z,96409.00
2023-03-31T05:00:26.894Z,96408.78
2023-03-31T05:02:53.550Z,96399.81
2023-03-31T05:05:20.206Z,96393.91
2023-03-31T05:07:46.739Z,96395.03
2023-03-31T05:10:13.246Z,96394.47
2023-03-31T05:12:40.109Z,96390.69
2023-03-31T05:15:07.515Z,96383.53
2023-03-31T05:17:35.772Z,96373.03
2023-03-31T05:20:06.811Z,96364.09
2023-03-31T05:22:37.879Z,96358.41
2023-03-31T05:25:06.285Z,96344.81
2023-03-31T05:27:33.123Z,96350.44
2023-03-31T05:29:59.948Z,96346.56
2023-03-31T05:32:27.358Z,96353.38
2023-03-31T05:34:57.095Z,96348.13
2023-03-31T05:37:25.085Z,96342.38
2023-03-31T05:39:51.950Z,96333.31
2023-03-31T05:42:19.734Z,96325.56
2023-03-31T05:44:46.310Z,96324.75
2023-03-31T05:47:13.343Z,96317.06
2023-03-31T05:49:39.881Z,96307.41
2023-03-31T05:52:07.826Z,96301.22
2023-03-31T05:54:34.359Z,96288.19
2023-03-31T05:57:00.966Z,96287.34
2023-03-31T05:59:27.703Z,96270.78
2023-03-31T06:01:54.464Z,96266.47
2023-03-31T06:04:21.180Z,96260.13
2023-03-31T06:06:50.282Z,96254.28
2023-03-31T06:09:17.887Z,96247.81
2023-03-31T06:11:44.629Z,96246.50
2023-03-31T06:14:11.684Z,96240.13
2023-03-31T06:16:38.636Z,96240.50
2023-03-31T06:19:05.652Z,96223.91
2023-03-31T06:21:33.056Z,96222.34
2023-03-31T06:24:00.610Z,96214.47
2023-03-31T06:26:27.925Z,96205.66
2023-03-31T06:28:54.428Z,96174.03
2023-03-31T06:31:23.695Z,96170.00
2023-03-31T06:33:51.109Z,96153.75
2023-03-31T06:36:19.809Z,96160.00
2023-03-31T06:38:46.904Z,96162.16
2023-03-31T06:41:15.246Z,96170.75
2023-03-31T06:43:42.200Z,96161.41
2023-03-31T06:46:09.323Z,96163.94
2023-03-31T06:48:36.971Z,96166.84
2023-03-31T06:51:06.250Z,96158.84
2023-03-31T06:53:33.654Z,96162.03
2023-03-31T06:56:00.666Z,96152.34
2023-03-31T06:58:29.802Z,96149.47
2023-03-31T07:00:57.908Z,96150.31
2023-03-31T07:03:25.375Z,96134.06
2023-03-31T07:05:53.295Z,96117.16
2023-03-31T07:08:21.510Z,96117.72
2023-03-31T07:10:49.261Z,96120.16
2023-03-31T07:13:17.630Z,96114.56
2023-03-31T07:15:46.900Z,96106.25
2023-03-31T07:18:15.468Z,96100.28
2023-03-31T07:20:42.561Z,96091.47
2023-03-31T07:23:09.501Z,96106.22
2023-03-31T07:25:36.461Z,96097.69
2023-03-31T07:28:04.555Z,96087.66
2023-03-31T07:30:31.227Z,96093.69
2023-03-31T07:32:58.504Z,96083.31
2023-03-31T07:35:25.497Z,96087.78
2023-03-31T07:37:52.191Z,96084.41
2023-03-31T07:40:27.088Z,96079.31
2023-03-31T07:42:54.020Z,96076.25
2023-03-31T07:45:22.729Z,96085.38
2023-03-31T07:47:50.195Z,96067.50
2023-03-31T07:50:17.939Z,96075.41
2023-03-31T07:52:46.889Z,96082.22
2023-03-31T07:55:13.799Z,96075.41
2023-03-31T07:57:41.470Z,96081.72
2023-03-31T08:00:10.792Z,96083.72
2023-03-31T08:02:37.406Z,96096.31
2023-03-31T08:05:05.791Z,96110.00
2023-03-31T08:07:36.786Z,96139.53
2023-03-31T08:10:06.342Z,96158.94
2023-03-31T08:12:32.928Z,96154.63
2023-03-31T08:14:59.414Z,96190.09
2023-03-31T08:17:26.036Z,96195.16
2023-03-31T08:19:52.556Z,96208.00
2023-03-31T08:22:19.241Z,96189.31
2023-03-31T08:24:47.086Z,96251.91
2023-03-31T08:27:13.575Z,96226.34
2023-03-31T08:29:40.241Z,96183.78
2023-03-31T08:32:07.290Z,96191.19
2023-03-31T08:34:34.131Z,96196.72
2023-03-31T08:37:00.718Z,96168.19
2023-03-31T08:39:27.355Z,96153.09
2023-03-31T08:42:00.138Z,96135.63
2023-03-31T08:44:38.003Z,96117.66
2023-03-31T08:47:07.156Z,96102.13
2023-03-31T08:49:43.897Z,96068.47
2023-03-31T08:52:15.885Z,96051.16
2023-03-31T08:54:47.100Z,96043.13
2023-03-31T08:57:22.190Z,96046.34
2023-03-31T08:59:49.504Z,96029.88
2023-03-31T09:02:33.156Z,96036.59
2023-03-31T09:05:08.848Z,96034.72
2023-03-31T09:08:13.499Z,96036.69
2023-03-31T09:10:39.987Z,96030.19
2023-03-31T09:13:38.532Z,96015.72
2023-03-31T09:16:38.375Z,95998.66
2023-03-31T09:19:15.759Z,96010.00
2023-03-31T09:21:47.500Z,95996.78
2023-03-31T09:24:17.998Z,95994.66
2023-03-31T09:26:50.659Z,95990.00
2023-03-31T09:29:24.403Z,95991.97
2023-03-31T09:31:51.049Z,95999.78
2023-03-31T09:34:28.451Z,96003.06
2023-03-31T09:36:55.143Z,95996.91
2023-03-31T09:39:21.870Z,96008.06
2023-03-31T09:41:51.008Z,96016.81
2023-03-31T09:44:45.032Z,96029.09
2023-03-31T09:47:29.194Z,96068.34
2023-03-31T09:49:56.114Z,96076.69
2023-03-31T09:52:35.326Z,96061.41
2023-03-31T09:55:05.599Z,96060.72
2023-03-31T09:57:35.197Z,96039.84
2023-03-31T10:00:13.903Z,96059.81
2023-03-31T10:02:58.015Z,96057.03
2023-03-31T10:05:41.309Z,96043.00
2023-03-31T10:08:20.117Z,96024.88
2023-03-31T10:10:52.883Z,96021.72
2023-03-31T10:13:23.575Z,96013.19
2023-03-31T10:15:55.397Z,96016.22
2023-03-31T10:18:33.313Z,96002.38
2023-03-31T10:21:02.142Z,95991.91
2023-03-31T10:23:32.275Z,95986.28
2023-03-31T10:26:00.558Z,95964.94
2023-03-31T10:28:30.946Z,95952.88
2023-03-31T10:31:03.491Z,95946.13
2023-03-31T10:33:36.592Z,95949.97
2023-03-31T10:36:10.046Z,95955.72
2023-03-31T10:38:42.713Z,95951.66
2023-03-31T10:41:09.950Z,95947.97
2023-03-31T10:43:48.323Z,95939.94
2023-03-31T10:46:14.860Z,95942.03
2023-03-31T10:48:44.378Z,95914.91
2023-03-31T10:51:19.285Z,95923.84
2023-03-31T10:53:51.521Z,95917.88
2023-03-31T10:56:39.440Z,95907.69
2023-03-31T10:59:06.640Z,95903.91
2023-03-31T11:01:57.712Z,95896.38
2023-03-31T11:04:43.375Z,95901.44
2023-03-31T11:07:29.512Z,95906.81
2023-03-31T11:10:11.283Z,95896.34
2023-03-31T11:12:45.081Z,95884.88
2023-03-31T11:15:29.726Z,95881.06
2023-03-31T11:18:18.758Z,95883.22
2023-03-31T11:20:54.151Z,95879.94
2023-03-31T11:23:36.921Z,95874.09
2023-03-31T11:26:18.874Z,95858.91
2023-03-31T11:29:16.610Z,95860.97
2023-03-31T11:32:26.548Z,95851.94
2023-03-31T11:34:55.927Z,95846.47
2023-03-31T11:37:22.986Z,95856.78
2023-03-31T11:40:00.923Z,95851.19
2023-03-31T11:42:46.558Z,95858.28
2023-03-31T11:45:18.637Z,95851.72
2023-03-31T11:47:49.545Z,95840.97
2023-03-31T11:50:23.714Z,95833.50
2023-03-31T11:53:16.947Z,95831.84
2023-03-31T11:55:48.133Z,95844.00
2023-03-31T11:58:28.352Z,95839.50
2023-03-31T12:01:14.505Z,95838.78
2023-03-31T12:04:09.716Z,95844.03
2023-03-31T12:06:41.779Z,95838.34
2023-03-31T12:09:27.534Z,95839.84
2023-03-31T12:12:19.256Z,95823.59
2023-03-31T12:14:53.383Z,95829.34
2023-03-31T12:17:29.636Z,95838.19
2023-03-31T12:19:57.857Z,95846.53
2023-03-31T12:22:24.298Z,95898.84
2023-03-31T12:24:52.493Z,95922.06
2023-03-31T12:27:37.871Z,95930.59
2023-03-31T12:30:10.832Z,95877.00
2023-03-31T12:40:55.377Z,95833.19
2023-03-31T12:43:25.091Z,95823.38
2023-03-31T12:46:21.538Z,95811.03
2023-03-31T12:49:24.904Z,95834.19
2023-03-31T12:52:19.762Z,95823.91
2023-03-31T12:58:32.875Z,95830.16
2023-03-31T13:01:16.516Z,95829.03
2023-03-31T13:07:02.294Z,95822.00
2023-03-31T13:09:31.600Z,95819.91
2023-03-31T13:11:58.229Z,95815.72
2023-03-31T13:14:30.392Z,95802.84
2023-03-31T13:17:30.720Z,95803.25
2023-03-31T13:20:17.052Z,95797.03
2023-03-31T13:22:48.442Z,95779.94
2023-03-31T13:25:30.418Z,95763.88
2023-03-31T13:27:59.024Z,95763.19
2023-03-31T13:30:37.130Z,95750.16
2023-03-31T13:33:22.172Z,95737.94
2023-03-31T13:35:57.485Z,95729.00
2023-03-31T13:38:51.657Z,95731.78
2023-03-31T13:41:30.965Z,95720.66
2023-03-31T13:44:14.967Z,95731.59
2023-03-31T13:46:56.703Z,95731.13
2023-03-31T13:49:51.723Z,95738.06
2023-03-31T13:52:33.543Z,95733.59
2023-03-31T13:55:21.980Z,95731.97
2023-03-31T13:58:24.951Z,95733.34
2023-03-31T14:01:14.765Z,95720.91
2023-03-31T14:03:47.350Z,95734.25
2023-03-31T14:06:32.271Z,95742.84
2023-03-31T14:09:05.838Z,95698.69
2023-03-31T14:11:33.304Z,95694.53
2023-03-31T14:14:17.853Z,95698.56
2023-03-31T14:17:02.564Z,95705.78
2023-03-31T14:19:31.746Z,95697.16
2023-03-31T14:22:35.976Z,95707.72
2023-03-31T14:25:08.203Z,95717.44
2023-03-31T14:27:56.494Z,95731.59
2023-03-31T14:30:47.586Z,95721.59
2023-03-31T14:33:34.271Z,95722.38
2023-03-31T14:36:15.949Z,95738.06
2023-03-31T14:38:43.390Z,95732.97
2023-03-31T14:41:20.158Z,95738.25
2023-03-31T14:43:51.514Z,95734.09
2023-03-31T14:46:22.192Z,95735.81
2023-03-31T14:48:51.265Z,95749.09
2023-03-31T14:51:29.643Z,95752.59
2023-03-31T14:54:00.920Z,95752.91
2023-03-31T14:56:41.114Z,95754.84
2023-03-31T14:59:08.662Z,95755.94
2023-03-31T15:01:38.328Z,95761.06
2023-03-31T15:04:12.606Z,95749.81
2023-03-31T15:06:42.083Z,95757.72
2023-03-31T15:09:18.961Z,95765.25
2023-03-31T15:11:47.658Z,95774.44
2023-03-31T15:14:14.594Z,95781.50
2023-03-31T15:16:43.450Z,95785.06
2023-03-31T15:19:22.834Z,95788.56
2023-03-31T15:22:01.641Z,95788.81
2023-03-31T15:24:29.230Z,95783.22
2023-03-31T15:27:03.487Z,95791.44
2023-03-31T15:29:38.374Z,95788.47
2023-03-31T15:32:13.493Z,95795.69
2023-03-31T15:34:43.259Z,95805.28
2023-03-31T15:37:10.541Z,95803.06
2023-03-31T15:39:38.436Z,95815.19
2023-03-31T15:42:07.249Z,95819.25
2023-03-31T15:44:37.860Z,95803.44
2023-03-31T15:47:12.854Z,95799.88
2023-03-31T15:49:54.308Z,95797.09
2023-03-31T15:52:53.018Z,95799.47
2023-03-31T15:55:39.911Z,95816.00
2023-03-31T15:58:11.814Z,95795.91
2023-03-31T16:00:47.422Z,95800.31
2023-03-31T16:03:18.849Z,95799.38
2023-03-31T16:08:44.809Z,95770.56
2023-03-31T16:11:17.835Z,95776.25
2023-03-31T16:13:50.278Z,95770.56
2023-03-31T16:16:21.283Z,95761.97
2023-03-31T16:18:51.188Z,95781.63
2023-03-31T16:21:28.374Z,95783.03
2023-03-31T16:23:58.821Z,95772.94
2023-03-31T16:26:28.204Z,95765.88
2023-03-31T16:28:57.473Z,95759.75
2023-03-31T16:31:34.781Z,95758.81
2023-03-31T16:34:03.837Z,95759.78
2023-03-31T16:36:31.232Z,95768.50
2023-03-31T16:39:01.874Z,95774.03
2023-03-31T16:41:29.735Z,95771.25
2023-03-31T16:43:56.329Z,95774.03
2023-03-31T16:46:23.750Z,95780.41
2023-03-31T16:48:51.248Z,95779.44
2023-03-31T16:51:19.746Z,95784.72
2023-03-31T16:53:47.104Z,95788.88
2023-03-31T16:56:14.398Z,95779.97
2023-03-31T16:58:42.054Z,95782.59
2023-03-31T17:01:10.027Z,95772.25
2023-03-31T17:03:38.429Z,95765.88
2023-03-31T17:06:11.431Z,95769.59
2023-03-31T17:08:39.555Z,95758.53
2023-03-31T17:11:10.978Z,95759.91
2023-03-31T17:13:38.482Z,95769.19
2023-03-31T17:16:17.524Z,95761.81
2023-03-31T17:18:53.111Z,95776.25
2023-03-31T17:21:19.925Z,95770.97
2023-03-31T17:23:46.919Z,95769.88
2023-03-31T17:26:14.465Z,95782.88
2023-03-31T17:28:41.632Z,95784.16
2023-03-31T17:31:26.277Z,95788.56
2023-03-31T17:33:52.852Z,95789.69
2023-03-31T17:36:19.469Z,95791.75
2023-03-31T17:38:46.043Z,95799.53
2023-03-31T17:41:13.521Z,95802.72
2023-03-31T17:43:40.506Z,95811.28
2023-03-31T17:46:11.830Z,95803.81
2023-03-31T17:48:39.409Z,95808.13
2023-03-31T17:51:12.070Z,95806.16
2023-03-31T17:53:39.708Z,95817.56
2023-03-31T17:56:06.650Z,95812.56
2023-03-31T17:58:33.661Z,95815.72
2023-03-31T18:01:00.201Z,95818.50
2023-03-31T18:03:29.860Z,95816.56
2023-03-31T18:05:56.764Z,95824.47
2023-03-31T18:08:23.261Z,95824.06
2023-03-31T18:10:50.542Z,95826.97
2023-03-31T18:13:17.482Z,95854.00
2023-03-31T18:15:49.139Z,95863.16
2023-03-31T18:18:15.801Z,95864.09
2023-03-31T18:20:42.429Z,95879.28
2023-03-31T18:23:08.989Z,95864.00
2023-03-31T18:25:36.054Z,95865.91
2023-03-31T18:28:03.530Z,95865.59
2023-03-31T18:30:30.209Z,95867.94
2023-03-31T18:32:57.328Z,95865.72
2023-03-31T18:35:24.120Z,95865.66
2023-03-31T18:37:50.701Z,95864.41
2023-03-31T18:40:17.382Z,95853.16
2023-03-31T18:42:43.914Z,95858.03
2023-03-31T18:45:10.648Z,95853.75
2023-03-31T18:47:37.182Z,95857.09
2023-03-31T18:50:04.724Z,95859.13
2023-03-31T18:52:31.690Z,95865.34
2023-03-31T18:54:58.377Z,95875.22
2023-03-31T18:57:25.236Z,95879.66
2023-03-31T18:59:51.916Z,95879.66
2023-03-31T19:02:18.549Z,95885.28
2023-03-31T19:04:45.546Z,95886.97
2023-03-31T19:07:12.079Z,95888.88
2023-03-31T19:09:38.997Z,95899.66
2023-03-31T19:12:05.925Z,95898.13
2023-03-31T19:14:33.342Z,95901.84
2023-03-31T19:17:00.137Z,95899.09
2023-03-31T19:19:27.195Z,95901.41
2023-03-31T19:21:54.429Z,95899.28
2023-03-31T19:24:20.947Z,95901.81
2023-03-31T19:26:47.679Z,95907.16
2023-03-31T19:29:14.153Z,95903.00
2023-03-31T19:31:41.449Z,95918.22
2023-03-31T19:34:11.594Z,95925.25
2023-03-31T19:36:38.234Z,95929.22
2023-03-31T19:39:06.513Z,95933.53
2023-03-31T19:41:34.450Z,95934.47
2023-03-31T19:44:01.633Z,95936.28
2023-03-31T19:46:28.681Z,95928.78
2023-03-31T19:48:55.201Z,95928.19
2023-03-31T19:51:21.717Z,95917.81
2023-03-31T19:53:48.286Z,95915.72
2023-03-31T19:56:17.351Z,95908.59
2023-03-31T19:58:44.546Z,95917.53
2023-03-31T20:01:17.737Z,95908.47
2023-03-31T20:03:44.757Z,95910.03
2023-03-31T20:06:13.849Z,95900.06
2023-03-31T20:08:42.587Z,95900.56
2023-03-31T20:13:40.009Z,95893.09
2023-03-31T20:16:11.746Z,95906.34
2023-03-31T20:18:38.687Z,95890.59
2023-03-31T20:21:06.599Z,95890.28
2023-03-31T20:23:34.118Z,95890.59
2023-03-31T20:26:01.283Z,95887.03
2023-03-31T20:28:29.088Z,95891.69
2023-03-31T20:30:58.576Z,95885.97
2023-03-31T20:33:26.201Z,95890.50
2023-03-31T20:36:27.162Z,95887.06
2023-03-31T20:38:54.171Z,95885.66
2023-03-31T20:41:23.126Z,95885.66
2023-03-31T20:43:50.625Z,95880.53
2023-03-31T20:46:17.589Z,95880.28
2023-03-31T20:48:47.692Z,95885.28
2023-03-31T20:51:15.547Z,95878.44
2023-03-31T20:53:47.060Z,95883.34
2023-03-31T20:56:17.431Z,95875.09
2023-03-31T20:58:44.879Z,95880.09
2023-03-31T21:01:13.410Z,95877.47
2023-03-31T21:03:41.248Z,95882.97
2023-03-31T21:06:11.759Z,95887.31
2023-03-31T21:08:39.699Z,95882.06
2023-03-31T21:11:06.557Z,95877.31
2023-03-31T21:13:33.627Z,95874.13
2023-03-31T21:16:01.299Z,95877.22
2023-03-31T21:18:29.465Z,95878.66
2023-03-31T21:21:01.443Z,95880.22
2023-03-31T21:23:29.756Z,95881.56
2023-03-31T21:25:58.872Z,95874.03
2023-03-31T21:28:28.695Z,95881.66
2023-03-31T21:31:00.634Z,95873.47
2023-03-31T21:33:28.793Z,95883.44
2023-03-31T21:35:56.518Z,95880.47
2023-03-31T21:38:23.461Z,95885.69
2023-03-31T21:40:54.303Z,95875.19
2023-03-31T21:43:22.047Z,95870.06
2023-03-31T21:45:50.185Z,95873.03
2023-03-31T21:48:16.979Z,95876.69
2023-03-31T21:50:46.051Z,95870.84
2023-03-31T21:53:12.872Z,95882.13
2023-03-31T21:55:39.498Z,95876.88
2023-03-31T21:58:06.205Z,95873.06
2023-03-31T22:00:32.886Z,95873.78
2023-03-31T22:03:16.162Z,95869.94
2023-03-31T22:05:46.632Z,95866.72
2023-03-31T22:08:13.155Z,95867.69
2023-03-31T22:10:39.641Z,95864.34
2023-03-31T22:13:06.357Z,95861.13
2023-03-31T22:15:33.021Z,95864.97
2023-03-31T22:17:59.854Z,95867.00
2023-03-31T22:20:26.975Z,95864.38
2023-03-31T22:22:53.468Z,95871.19
2023-03-31T22:25:19.998Z,95872.03
2023-03-31T22:27:46.489Z,95865.94
2023-03-31T22:30:13.515Z,95872.13
2023-03-31T22:32:40.069Z,95865.09
2023-03-31T22:35:07.226Z,95869.41
2023-03-31T22:37:33.694Z,95870.59
2023-03-31T22:40:00.388Z,95876.56
2023-03-31T22:42:26.920Z,95867.06
2023-03-31T22:44:53.400Z,95870.44
2023-03-31T22:47:20.095Z,95863.41
2023-03-31T22:49:46.826Z,95859.72
2023-03-31T22:52:13.371Z,95859.03
2023-03-31T22:54:41.204Z,95863.19
2023-03-31T22:57:08.266Z,95866.66
2023-03-31T22:59:36.205Z,95867.38
2023-03-31T23:02:03.470Z,95861.88
2023-03-31T23:04:30.526Z,95859.88
2023-03-31T23:06:57.105Z,95860.47
2023-03-31T23:09:24.479Z,95860.34
2023-03-31T23:11:51.440Z,95855.00
2023-03-31T23:14:17.958Z,95865.34
2023-03-31T23:16:44.695Z,95869.16
2023-03-31T23:19:12.236Z,95867.38
2023-03-31T23:21:38.815Z,95871.66
2023-03-31T23:24:05.633Z,95867.72
2023-03-31T23:26:33.984Z,95866.75
2023-03-31T23:29:01.295Z,95871.50
2023-03-31T23:31:30.240Z,95861.50
2023-03-31T23:33:58.449Z,95861.41
2023-03-31T23:36:25.940Z,95863.38
2023-03-31T23:38:55.135Z,95859.94
2023-03-31T23:41:26.323Z,95857.56
2023-03-31T23:43:53.753Z,95860.56
2023-03-31T23:46:21.558Z,95856.75
2023-03-31T23:48:48.113Z,95855.69
2023-03-31T23:51:14.638Z,95858.78
2023-03-31T23:53:41.209Z,95861.06
2023-03-31T23:56:10.516Z,95856.50
2023-03-31T23:58:37.540Z,95865.09
